createdAt,value
2017-09-29T00:02:26.419Z,15.23
2017-09-29T00:04:54.149Z,19.58
2017-09-29T00:07:21.949Z,16.37
2017-09-29T00:09:49.821Z,16.27
2017-09-29T00:12:17.683Z,12.65
2017-09-29T00:14:45.550Z,13.73
2017-09-29T00:17:13.422Z,16.15
2017-09-29T00:19:41.285Z,16.55
2017-09-29T00:22:09.152Z,17.60
2017-09-29T00:24:37.123Z,17.15
2017-09-29T00:27:04.989Z,19.12
2017-09-29T00:29:32.790Z,15.52
2017-09-29T00:32:01.366Z,16.35
2017-09-29T00:34:30.026Z,19.73
2017-09-29T00:36:57.892Z,21.02
2017-09-29T00:39:25.759Z,23.80
2017-09-29T00:41:53.627Z,17.50
2017-09-29T00:44:21.596Z,20.17
2017-09-29T00:46:49.465Z,18.65
2017-09-29T00:49:17.330Z,24.15
2017-09-29T00:51:45.306Z,24.80
2017-09-29T00:54:13.168Z,23.45
2017-09-29T00:56:41.035Z,20.37
2017-09-29T00:59:08.902Z,20.40
2017-09-29T01:01:36.770Z,22.35
2017-09-29T01:04:04.636Z,17.55
2017-09-29T01:06:32.606Z,20.17
2017-09-29T01:09:00.883Z,23.70
2017-09-29T01:11:31.721Z,20.77
2017-09-29T01:13:59.587Z,21.33
2017-09-29T01:16:27.455Z,23.48
2017-09-29T01:18:55.425Z,20.10
2017-09-29T01:21:23.394Z,20.40
2017-09-29T01:23:51.364Z,25.77
2017-09-29T01:26:20.083Z,20.77
2017-09-29T01:28:48.737Z,22.10
2017-09-29T01:31:16.606Z,18.83
2017-09-29T01:33:44.472Z,25.08
2017-09-29T01:36:12.340Z,22.40
2017-09-29T01:38:40.206Z,23.60
2017-09-29T01:41:08.176Z,27.70
2017-09-29T01:43:36.145Z,23.90
2017-09-29T01:46:04.013Z,18.80
2017-09-29T01:48:31.880Z,20.08
2017-09-29T01:50:59.850Z,23.00
2017-09-29T01:53:27.752Z,22.70
2017-09-29T01:55:56.510Z,24.37
2017-09-29T01:58:24.301Z,21.67
2017-09-29T02:00:52.243Z,23.33
2017-09-29T02:03:20.151Z,27.80
2017-09-29T02:05:48.799Z,21.92
2017-09-29T02:08:16.769Z,16.27
2017-09-29T02:10:44.634Z,21.10
2017-09-29T02:13:12.499Z,20.55
2017-09-29T02:15:40.367Z,20.80
2017-09-29T02:18:08.339Z,24.50
2017-09-29T02:20:36.305Z,21.73
2017-09-29T02:23:04.173Z,16.52
2017-09-29T02:25:32.039Z,26.52
2017-09-29T02:27:59.907Z,18.37
2017-09-29T02:30:27.774Z,21.52
2017-09-29T02:32:55.745Z,24.95
2017-09-29T02:35:23.714Z,21.85
2017-09-29T02:37:51.683Z,21.15
2017-09-29T02:40:19.653Z,20.95
2017-09-29T02:42:47.519Z,21.52
2017-09-29T02:45:15.489Z,22.87
2017-09-29T02:47:43.356Z,19.77
2017-09-29T02:50:11.158Z,26.02
2017-09-29T02:52:39.811Z,24.20
2017-09-29T02:55:07.779Z,18.10
2017-09-29T02:57:40.498Z,26.23
2017-09-29T03:00:11.870Z,24.05
2017-09-29T03:02:41.530Z,21.85
2017-09-29T03:05:11.669Z,23.90
2017-09-29T03:07:39.607Z,18.85
2017-09-29T03:10:07.578Z,27.25
2017-09-29T03:12:35.445Z,20.25
2017-09-29T03:15:03.312Z,18.73
2017-09-29T03:17:31.282Z,23.25
2017-09-29T03:19:59.149Z,19.30
2017-09-29T03:22:27.119Z,23.08
2017-09-29T03:24:54.987Z,25.30
2017-09-29T03:27:22.852Z,25.17
2017-09-29T03:29:50.721Z,23.90
2017-09-29T03:32:18.588Z,27.10
2017-09-29T03:34:46.456Z,25.83
2017-09-29T03:37:14.321Z,28.27
2017-09-29T03:39:42.190Z,23.20
2017-09-29T03:42:09.991Z,27.50
2017-09-29T03:44:38.641Z,23.95
2017-09-29T03:47:06.610Z,22.55
2017-09-29T03:49:34.514Z,27.45
2017-09-29T03:52:04.022Z,24.33
2017-09-29T03:54:34.409Z,27.23
2017-09-29T03:57:04.810Z,31.85
2017-09-29T03:59:32.706Z,33.47
2017-09-29T04:02:00.573Z,40.17
2017-09-29T04:04:28.440Z,44.97
2017-09-29T04:06:56.308Z,39.53
2017-09-29T04:09:24.206Z,38.10
2017-09-29T04:11:52.862Z,34.88
2017-09-29T04:14:20.733Z,28.23
2017-09-29T04:16:48.699Z,25.08
2017-09-29T04:19:16.876Z,27.20
2017-09-29T04:21:45.555Z,34.47
2017-09-29T04:24:15.846Z,32.47
2017-09-29T04:26:46.198Z,27.80
2017-09-29T04:29:14.386Z,29.63
2017-09-29T04:31:42.353Z,28.45
2017-09-29T04:34:10.226Z,26.62
2017-09-29T04:36:38.089Z,29.73
2017-09-29T04:39:05.957Z,30.27
2017-09-29T04:41:33.823Z,31.02
2017-09-29T04:44:01.691Z,23.50
2017-09-29T04:46:29.561Z,29.80
2017-09-29T04:48:57.426Z,25.27
2017-09-29T04:51:25.293Z,23.98
2017-09-29T04:53:53.160Z,24.92
2017-09-29T04:56:21.027Z,28.92
2017-09-29T04:58:48.901Z,27.05
2017-09-29T05:01:16.864Z,26.30
2017-09-29T05:03:44.733Z,24.52
2017-09-29T05:06:12.598Z,27.23
2017-09-29T05:08:40.467Z,25.05
2017-09-29T05:11:08.333Z,21.65
2017-09-29T05:13:36.201Z,28.87
2017-09-29T05:16:04.177Z,24.52
2017-09-29T05:18:32.048Z,25.15
2017-09-29T05:20:59.907Z,25.10
2017-09-29T05:23:27.775Z,25.80
2017-09-29T05:25:55.645Z,25.10
2017-09-29T05:28:23.512Z,27.27
2017-09-29T05:30:51.378Z,25.58
2017-09-29T05:33:19.243Z,24.35
2017-09-29T05:35:47.111Z,29.75
2017-09-29T05:38:14.977Z,27.27
2017-09-29T05:40:42.844Z,26.10
2017-09-29T05:43:10.711Z,22.70
2017-09-29T05:45:38.578Z,25.12
2017-09-29T05:48:06.549Z,25.85
2017-09-29T05:50:34.415Z,27.75
2017-09-29T05:53:02.281Z,28.38
2017-09-29T05:55:30.151Z,24.27
2017-09-29T05:57:58.017Z,32.65
2017-09-29T06:00:25.885Z,27.33
2017-09-29T06:02:53.752Z,25.02
2017-09-29T06:05:21.725Z,23.33
2017-09-29T06:07:49.589Z,29.40
2017-09-29T06:10:17.457Z,22.87
2017-09-29T06:12:45.324Z,24.15
2017-09-29T06:15:13.192Z,26.85
2017-09-29T06:17:41.058Z,24.60
2017-09-29T06:20:08.926Z,25.60
2017-09-29T06:22:36.797Z,28.20
2017-09-29T06:25:04.661Z,30.37
2017-09-29T06:27:32.630Z,26.52
2017-09-29T06:30:00.498Z,30.15
2017-09-29T06:32:28.366Z,28.35
2017-09-29T06:34:56.233Z,27.30
2017-09-29T06:37:24.100Z,27.08
2017-09-29T06:39:52.172Z,26.77
2017-09-29T06:42:20.039Z,21.80
2017-09-29T06:44:47.907Z,26.85
2017-09-29T06:47:15.774Z,21.95
2017-09-29T06:49:43.640Z,21.80
2017-09-29T06:52:11.611Z,23.67
2017-09-29T06:54:39.478Z,27.62
2017-09-29T06:57:07.345Z,27.15
2017-09-29T06:59:35.214Z,22.30
2017-09-29T07:02:03.080Z,26.17
2017-09-29T07:04:30.947Z,28.77
2017-09-29T07:06:58.814Z,30.50
2017-09-29T07:09:26.610Z,25.90
2017-09-29T07:11:54.446Z,29.87
2017-09-29T07:14:22.315Z,22.95
2017-09-29T07:16:50.181Z,25.12
2017-09-29T07:19:18.043Z,23.05
2017-09-29T07:21:45.915Z,25.35
2017-09-29T07:24:13.784Z,21.87
2017-09-29T07:26:43.863Z,16.73
2017-09-29T07:29:12.887Z,21.52
2017-09-29T07:31:43.777Z,32.55
2017-09-29T07:34:12.423Z,23.35
2017-09-29T07:36:40.294Z,21.20
2017-09-29T07:39:08.156Z,23.77
2017-09-29T07:41:36.023Z,25.05
2017-09-29T07:44:03.892Z,24.25
2017-09-29T07:46:31.757Z,23.58
2017-09-29T07:48:59.624Z,28.83
2017-09-29T07:51:27.530Z,47.38
2017-09-29T07:53:56.178Z,23.17
2017-09-29T07:56:24.045Z,29.75
2017-09-29T07:58:51.912Z,36.63
2017-09-29T08:01:19.779Z,23.85
2017-09-29T08:03:47.647Z,30.98
2017-09-29T08:06:15.514Z,23.45
2017-09-29T08:08:43.381Z,26.30
2017-09-29T08:11:11.249Z,20.85
2017-09-29T08:13:39.116Z,22.55
2017-09-29T08:16:07.086Z,24.25
2017-09-29T08:18:34.954Z,23.77
2017-09-29T08:21:02.821Z,24.17
2017-09-29T08:23:30.688Z,22.52
2017-09-29T08:25:58.555Z,20.42
2017-09-29T08:28:26.423Z,26.15
2017-09-29T08:30:54.290Z,23.55
2017-09-29T08:33:22.156Z,20.17
2017-09-29T08:35:50.034Z,25.65
2017-09-29T08:38:18.714Z,22.98
2017-09-29T08:40:46.581Z,21.05
2017-09-29T08:43:14.445Z,21.20
2017-09-29T08:45:42.319Z,23.87
2017-09-29T08:48:10.183Z,29.92
2017-09-29T08:50:38.052Z,21.60
2017-09-29T08:53:05.918Z,29.85
2017-09-29T08:55:33.782Z,21.77
2017-09-29T08:58:01.648Z,21.70
2017-09-29T09:00:29.515Z,24.33
2017-09-29T09:02:57.484Z,29.10
2017-09-29T09:05:25.353Z,26.55
2017-09-29T09:07:53.231Z,29.10
2017-09-29T09:10:21.087Z,23.73
2017-09-29T09:12:48.955Z,23.67
2017-09-29T09:15:16.923Z,28.60
2017-09-29T09:17:44.791Z,27.10
2017-09-29T09:20:12.762Z,25.42
2017-09-29T09:22:40.628Z,24.65
2017-09-29T09:25:08.496Z,25.80
2017-09-29T09:27:36.363Z,23.30
2017-09-29T09:30:04.231Z,25.65
2017-09-29T09:32:32.097Z,27.23
2017-09-29T09:34:59.965Z,26.45
2017-09-29T09:37:27.832Z,23.70
2017-09-29T09:39:55.625Z,29.02
2017-09-29T09:42:23.465Z,23.23
2017-09-29T09:44:51.333Z,24.20
2017-09-29T09:47:19.199Z,21.48
2017-09-29T09:49:47.168Z,20.62
2017-09-29T09:52:15.037Z,24.80
2017-09-29T09:54:42.903Z,26.17
2017-09-29T09:57:10.770Z,25.00
2017-09-29T09:59:38.639Z,25.58
2017-09-29T10:02:06.505Z,23.52
2017-09-29T10:04:34.373Z,20.02
2017-09-29T10:07:02.240Z,21.77
2017-09-29T10:09:30.108Z,18.52
2017-09-29T10:11:57.974Z,20.85
2017-09-29T10:14:25.843Z,17.17
2017-09-29T10:16:53.709Z,17.67
2017-09-29T10:19:21.680Z,24.05
2017-09-29T10:21:49.547Z,20.12
2017-09-29T10:24:17.515Z,25.70
2017-09-29T10:26:45.383Z,15.60
2017-09-29T10:29:13.355Z,12.85
2017-09-29T10:31:41.150Z,15.65
2017-09-29T10:34:09.805Z,22.98
2017-09-29T10:36:37.672Z,18.90
2017-09-29T10:39:05.539Z,18.05
2017-09-29T10:41:33.406Z,13.82
2017-09-29T10:44:01.277Z,13.23
2017-09-29T10:46:29.141Z,16.10
2017-09-29T10:48:57.111Z,12.05
2017-09-29T10:51:24.978Z,18.37
2017-09-29T10:53:53.051Z,14.87
2017-09-29T10:56:20.917Z,15.93
2017-09-29T10:58:48.785Z,10.82
2017-09-29T11:01:16.652Z,9.95
2017-09-29T11:03:44.520Z,15.15
2017-09-29T11:06:12.388Z,16.23
2017-09-29T11:08:40.257Z,13.35
2017-09-29T11:11:08.121Z,11.80
2017-09-29T11:13:35.989Z,17.00
2017-09-29T11:16:03.856Z,15.70
2017-09-29T11:18:31.827Z,17.37
2017-09-29T11:20:59.693Z,15.02
2017-09-29T11:23:27.559Z,14.25
2017-09-29T11:25:55.427Z,15.27
2017-09-29T11:28:23.294Z,16.65
2017-09-29T11:30:51.162Z,15.68
2017-09-29T11:33:19.030Z,13.70
2017-09-29T11:35:47.130Z,21.00
2017-09-29T11:38:14.968Z,17.52
2017-09-29T11:40:42.836Z,16.95
2017-09-29T11:43:10.703Z,16.55
2017-09-29T11:45:38.571Z,12.63
2017-09-29T11:48:06.643Z,11.55
2017-09-29T11:50:34.510Z,14.18
2017-09-29T11:53:02.384Z,12.55
2017-09-29T11:55:30.244Z,11.18
2017-09-29T11:57:58.112Z,11.35
2017-09-29T12:00:25.980Z,9.30
2017-09-29T12:02:53.851Z,11.32
2017-09-29T12:05:21.717Z,13.77
2017-09-29T12:07:49.584Z,14.43
2017-09-29T12:10:17.448Z,11.95
2017-09-29T12:12:45.319Z,7.75
2017-09-29T12:15:13.293Z,11.12
2017-09-29T12:17:41.154Z,9.48
2017-09-29T12:20:09.028Z,10.88
2017-09-29T12:22:37.605Z,19.00
2017-09-29T12:25:05.471Z,9.98
2017-09-29T12:27:33.339Z,10.10
2017-09-29T12:30:01.206Z,13.07
2017-09-29T12:32:29.073Z,9.98
2017-09-29T12:34:56.939Z,7.47
2017-09-29T12:37:24.807Z,8.00
2017-09-29T12:39:52.778Z,14.07
2017-09-29T12:42:20.645Z,11.68
2017-09-29T12:44:48.438Z,7.15
2017-09-29T12:47:16.277Z,12.98
2017-09-29T12:49:44.144Z,8.98
2017-09-29T12:52:12.011Z,13.57
2017-09-29T12:54:39.878Z,8.95
2017-09-29T12:57:07.746Z,15.48
2017-09-29T12:59:35.616Z,12.55
2017-09-29T13:02:03.481Z,8.15
2017-09-29T13:04:31.347Z,5.50
2017-09-29T13:06:59.214Z,6.10
2017-09-29T13:09:27.081Z,9.77
2017-09-29T13:11:54.950Z,5.57
2017-09-29T13:14:22.835Z,7.50
2017-09-29T13:16:50.683Z,8.07
2017-09-29T13:19:18.550Z,6.62
2017-09-29T13:21:46.425Z,7.05
2017-09-29T13:24:14.284Z,7.40
2017-09-29T13:26:42.153Z,7.18
2017-09-29T13:29:10.019Z,6.45
2017-09-29T13:31:37.887Z,11.12
2017-09-29T13:34:05.755Z,10.77
2017-09-29T13:36:33.622Z,6.05
2017-09-29T13:39:01.592Z,8.23
2017-09-29T13:41:29.459Z,8.18
2017-09-29T13:43:57.326Z,9.18
2017-09-29T13:46:25.193Z,10.43
2017-09-29T13:48:53.060Z,10.45
2017-09-29T13:51:20.928Z,7.68
2017-09-29T13:53:48.795Z,9.77
2017-09-29T13:56:16.592Z,5.03
2017-09-29T13:58:45.278Z,7.90
2017-09-29T14:01:13.114Z,5.57
2017-09-29T14:03:41.009Z,7.45
2017-09-29T14:06:08.849Z,8.75
2017-09-29T14:08:36.716Z,11.00
2017-09-29T14:11:05.306Z,5.95
2017-09-29T14:13:33.168Z,6.62
2017-09-29T14:16:01.035Z,5.60
2017-09-29T14:18:28.902Z,7.12
2017-09-29T14:20:56.769Z,4.68
2017-09-29T14:23:24.635Z,4.35
2017-09-29T14:25:52.502Z,12.43
2017-09-29T14:28:20.371Z,11.25
2017-09-29T14:30:48.244Z,5.18
2017-09-29T14:33:16.105Z,5.07
2017-09-29T14:35:43.971Z,11.75
2017-09-29T14:38:11.942Z,10.10
2017-09-29T14:40:39.809Z,9.27
2017-09-29T14:43:07.881Z,6.82
2017-09-29T14:45:35.748Z,8.15
2017-09-29T14:48:03.616Z,6.00
2017-09-29T14:50:31.483Z,9.57
2017-09-29T14:52:59.350Z,9.25
2017-09-29T14:55:27.218Z,6.35
2017-09-29T14:57:55.084Z,6.05
2017-09-29T15:00:22.953Z,5.45
2017-09-29T15:02:50.819Z,7.85
2017-09-29T15:05:18.688Z,12.00
2017-09-29T15:07:46.556Z,6.65
2017-09-29T15:10:14.421Z,7.53
2017-09-29T15:12:42.288Z,7.37
2017-09-29T15:15:10.155Z,5.35
2017-09-29T15:17:38.024Z,8.63
2017-09-29T15:20:05.891Z,7.35
2017-09-29T15:22:33.757Z,5.05
2017-09-29T15:25:01.728Z,10.70
2017-09-29T15:27:29.595Z,6.70
2017-09-29T15:29:57.461Z,17.73
2017-09-29T15:32:27.038Z,22.20
2017-09-29T15:34:54.940Z,12.27
2017-09-29T15:37:22.910Z,26.55
2017-09-29T15:39:50.813Z,18.58
2017-09-29T15:42:19.464Z,14.05
2017-09-29T15:44:47.779Z,12.55
2017-09-29T15:47:16.425Z,12.82
2017-09-29T15:49:44.291Z,10.27
2017-09-29T15:52:13.136Z,8.10
2017-09-29T15:54:40.948Z,7.72
2017-09-29T15:57:08.815Z,7.53
2017-09-29T15:59:36.682Z,6.53
2017-09-29T16:02:04.550Z,14.10
2017-09-29T16:04:32.426Z,8.32
2017-09-29T16:07:00.284Z,9.82
2017-09-29T16:09:28.151Z,9.88
2017-09-29T16:11:56.018Z,15.05
2017-09-29T16:14:23.886Z,8.23
2017-09-29T16:16:51.753Z,12.20
2017-09-29T16:19:19.621Z,9.15
2017-09-29T16:21:47.489Z,7.70
2017-09-29T16:24:15.356Z,8.90
2017-09-29T16:26:43.223Z,11.57
2017-09-29T16:29:11.089Z,10.02
2017-09-29T16:31:38.956Z,12.00
2017-09-29T16:34:06.824Z,9.00
2017-09-29T16:36:34.694Z,12.48
2017-09-29T16:39:02.559Z,6.97
2017-09-29T16:41:30.530Z,11.90
2017-09-29T16:44:00.599Z,11.35
2017-09-29T16:46:28.617Z,8.63
2017-09-29T16:48:56.591Z,14.48
2017-09-29T16:51:24.470Z,14.60
2017-09-29T16:53:52.425Z,8.00
2017-09-29T16:56:20.292Z,10.60
2017-09-29T16:58:48.160Z,6.95
2017-09-29T17:01:16.029Z,9.52
2017-09-29T17:03:43.894Z,13.52
2017-09-29T17:06:11.764Z,14.98
2017-09-29T17:08:40.864Z,7.65
2017-09-29T17:11:08.730Z,9.02
2017-09-29T17:13:37.719Z,11.88
2017-09-29T17:16:06.781Z,9.23
2017-09-29T17:18:34.682Z,8.20
2017-09-29T17:21:02.549Z,7.50
2017-09-29T17:23:30.417Z,8.48
2017-09-29T17:25:58.284Z,8.75
2017-09-29T17:28:26.150Z,13.10
2017-09-29T17:30:54.018Z,12.35
2017-09-29T17:33:21.886Z,8.77
2017-09-29T17:35:49.678Z,10.02
2017-09-29T17:38:17.518Z,7.70
2017-09-29T17:40:45.386Z,13.52
2017-09-29T17:43:13.463Z,9.90
2017-09-29T17:45:41.331Z,10.77
2017-09-29T17:48:09.192Z,10.90
2017-09-29T17:50:37.059Z,9.40
2017-09-29T17:53:04.926Z,10.00
2017-09-29T17:55:32.796Z,9.60
2017-09-29T17:58:00.660Z,8.98
2017-09-29T18:00:28.528Z,8.43
2017-09-29T18:02:56.497Z,13.05
2017-09-29T18:05:24.365Z,9.50
2017-09-29T18:07:52.233Z,14.70
2017-09-29T18:10:20.100Z,9.25
2017-09-29T18:12:47.966Z,7.45
2017-09-29T18:15:15.834Z,8.63
2017-09-29T18:17:43.704Z,10.15
2017-09-29T18:20:11.568Z,8.63
2017-09-29T18:22:39.436Z,13.35
2017-09-29T18:25:07.310Z,15.80
2017-09-29T18:27:35.186Z,16.50
2017-09-29T18:30:04.062Z,22.65
2017-09-29T18:32:31.929Z,22.00
2017-09-29T18:34:59.800Z,18.08
2017-09-29T18:37:27.664Z,12.50
2017-09-29T18:39:55.531Z,14.52
2017-09-29T18:42:23.407Z,14.15
2017-09-29T18:45:06.831Z,13.23
2017-09-29T18:47:34.699Z,17.62
2017-09-29T18:50:02.566Z,14.98
2017-09-29T18:52:30.435Z,9.65
2017-09-29T18:54:58.300Z,15.40
2017-09-29T18:57:26.269Z,13.13
2017-09-29T18:59:54.240Z,11.98
2017-09-29T19:02:22.214Z,13.27
2017-09-29T19:04:50.080Z,25.70
2017-09-29T19:07:17.945Z,13.02
2017-09-29T19:09:45.926Z,9.63
2017-09-29T19:12:13.785Z,12.73
2017-09-29T19:14:41.657Z,10.63
2017-09-29T19:17:09.519Z,9.85
2017-09-29T19:19:37.383Z,10.57
2017-09-29T19:22:05.251Z,12.35
2017-09-29T19:24:33.117Z,13.70
2017-09-29T19:27:00.984Z,9.68
2017-09-29T19:29:28.858Z,12.37
2017-09-29T19:31:56.721Z,10.82
2017-09-29T19:34:24.587Z,9.40
2017-09-29T19:36:52.463Z,8.80
2017-09-29T19:39:20.320Z,13.57
2017-09-29T19:41:48.115Z,8.85
2017-09-29T19:44:15.953Z,11.50
2017-09-29T19:46:43.820Z,11.52
2017-09-29T19:49:11.687Z,9.75
2017-09-29T19:51:39.555Z,7.90
2017-09-29T19:54:07.423Z,9.15
2017-09-29T19:56:35.289Z,7.60
2017-09-29T19:59:03.156Z,13.82
2017-09-29T20:01:31.023Z,14.65
2017-09-29T20:03:59.197Z,12.20
2017-09-29T20:06:27.098Z,9.52
2017-09-29T20:08:55.650Z,12.98
2017-09-29T20:11:24.439Z,12.18
2017-09-29T20:13:52.306Z,16.02
2017-09-29T20:16:20.174Z,12.30
2017-09-29T20:18:47.971Z,14.15
2017-09-29T20:21:16.625Z,16.87
2017-09-29T20:23:44.494Z,14.82
2017-09-29T20:26:12.366Z,16.60
2017-09-29T20:28:40.227Z,13.80
2017-09-29T20:31:08.196Z,12.00
2017-09-29T20:33:36.063Z,13.00
2017-09-29T20:36:03.931Z,8.68
2017-09-29T20:38:31.900Z,11.85
2017-09-29T20:40:59.768Z,11.88
2017-09-29T20:43:27.737Z,12.07
2017-09-29T20:45:55.604Z,16.23
2017-09-29T20:48:23.473Z,18.08
2017-09-29T20:50:51.339Z,11.80
2017-09-29T20:53:19.206Z,10.15
2017-09-29T20:55:47.177Z,12.82
2017-09-29T20:58:15.043Z,11.32
2017-09-29T21:00:42.839Z,8.35
2017-09-29T21:03:13.246Z,9.02
2017-09-29T21:05:44.216Z,14.98
2017-09-29T21:08:12.862Z,11.57
2017-09-29T21:10:40.729Z,8.75
2017-09-29T21:13:11.176Z,9.00
2017-09-29T21:15:41.768Z,13.70
2017-09-29T21:18:13.568Z,8.68
2017-09-29T21:21:00.445Z,14.30
2017-09-29T21:23:39.652Z,13.30
2017-09-29T21:26:10.315Z,13.32
2017-09-29T21:28:40.973Z,15.20
2017-09-29T21:31:12.636Z,11.20
2017-09-29T21:33:44.488Z,11.90
2017-09-29T21:36:15.579Z,13.82
2017-09-29T21:38:45.760Z,10.30
2017-09-29T21:41:26.060Z,14.05
2017-09-29T21:43:56.859Z,12.82
2017-09-29T21:46:27.569Z,11.30
2017-09-29T21:48:58.351Z,9.07
2017-09-29T21:51:28.684Z,9.77
2017-09-29T21:53:59.180Z,15.65
2017-09-29T21:56:27.691Z,14.70
2017-09-29T21:58:58.511Z,9.52
2017-09-29T22:01:26.460Z,10.40
2017-09-29T22:03:54.314Z,17.90
2017-09-29T22:06:22.283Z,9.77
2017-09-29T22:08:50.259Z,15.07
2017-09-29T22:11:18.120Z,13.50
2017-09-29T22:13:45.988Z,12.48
2017-09-29T22:16:13.855Z,8.65
2017-09-29T22:18:41.824Z,18.35
2017-09-29T22:21:09.691Z,13.50
2017-09-29T22:23:38.148Z,13.20
2017-09-29T22:26:06.144Z,13.13
2017-09-29T22:28:34.218Z,10.25
2017-09-29T22:31:02.242Z,12.00
2017-09-29T22:33:30.056Z,16.45
2017-09-29T22:35:57.923Z,12.93
2017-09-29T22:38:25.889Z,13.65
2017-09-29T22:40:53.864Z,10.95
2017-09-29T22:43:21.734Z,12.93
2017-09-29T22:45:49.602Z,10.35
2017-09-29T22:48:17.546Z,13.60
2017-09-29T22:50:45.432Z,10.07
2017-09-29T22:53:13.807Z,20.15
2017-09-29T22:55:41.677Z,11.00
2017-09-29T22:58:09.545Z,12.85
2017-09-29T23:00:37.411Z,14.18
2017-09-29T23:03:05.281Z,13.60
2017-09-29T23:05:33.148Z,11.73
2017-09-29T23:08:01.017Z,14.57
2017-09-29T23:10:28.890Z,14.05
2017-09-29T23:12:56.749Z,13.00
2017-09-29T23:15:24.652Z,13.23
2017-09-29T23:17:52.483Z,11.70
2017-09-29T23:20:20.350Z,15.00
2017-09-29T23:22:48.218Z,10.20
2017-09-29T23:25:16.085Z,9.20
2017-09-29T23:27:43.881Z,10.38
2017-09-29T23:30:12.435Z,20.23
2017-09-29T23:32:40.304Z,16.70
2017-09-29T23:35:08.174Z,11.10
2017-09-29T23:37:36.036Z,14.32
2017-09-29T23:40:03.910Z,15.90
2017-09-29T23:42:31.771Z,12.88
2017-09-29T23:44:59.638Z,14.80
2017-09-29T23:47:27.507Z,13.75
2017-09-29T23:49:55.372Z,11.02
2017-09-29T23:52:23.244Z,13.35
2017-09-29T23:54:51.106Z,12.40
2017-09-29T23:57:18.974Z,13.48
2017-09-29T23:59:46.841Z,24.15
